sensor_id;sensor_type;location;lat;lon;timestamp;pressure;altitude;pressure_sealevel;temperature;humidity
14818;BME280;7500;57.698;11.986;2022-09-13T00:01:29;100654.63;;;17.81;100.00
14818;BME280;7500;57.698;11.986;2022-09-13T00:03:58;100645.00;;;17.90;100.00
14818;BME280;7500;57.698;11.986;2022-09-13T00:06:25;100647.81;;;17.88;100.00
14818;BME280;7500;57.698;11.986;2022-09-13T00:08:51;100639.56;;;17.91;100.00
14818;BME280;7500;57.698;11.986;2022-09-13T00:11:20;100729.31;;;17.72;100.00
14818;BME280;7500;57.698;11.986;2022-09-13T00:13:48;100771.47;;;18.84;100.00
14818;BME280;7500;57.698;11.986;2022-09-13T00:16:17;100762.00;;;19.21;100.00
14818;BME280;7500;57.698;11.986;2022-09-13T00:18:44;100733.00;;;19.26;100.00
14818;BME280;7500;57.698;11.986;2022-09-13T00:21:14;100696.00;;;19.40;100.00
14818;BME280;7500;57.698;11.986;2022-09-13T00:23:43;100697.34;;;19.16;100.00
14818;BME280;7500;57.698;11.986;2022-09-13T00:26:12;100675.06;;;19.16;100.00
14818;BME280;7500;57.698;11.986;2022-09-13T00:28:39;100705.22;;;19.18;100.00
14818;BME280;7500;57.698;11.986;2022-09-13T00:31:08;100669.09;;;19.33;100.00
14818;BME280;7500;57.698;11.986;2022-09-13T00:33:35;100636.81;;;19.34;100.00
14818;BME280;7500;57.698;11.986;2022-09-13T00:36:03;100579.56;;;19.16;100.00
14818;BME280;7500;57.698;11.986;2022-09-13T00:38:34;100580.78;;;19.12;100.00
14818;BME280;7500;57.698;11.986;2022-09-13T00:41:02;100566.31;;;19.24;100.00
14818;BME280;7500;57.698;11.986;2022-09-13T00:43:45;100560.75;;;19.37;100.00
14818;BME280;7500;57.698;11.986;2022-09-13T00:46:17;100542.56;;;19.40;100.00
14818;BME280;7500;57.698;11.986;2022-09-13T00:48:46;100517.03;;;19.17;100.00
14818;BME280;7500;57.698;11.986;2022-09-13T00:51:15;100500.38;;;19.14;100.00
14818;BME280;7500;57.698;11.986;2022-09-13T00:53:46;100504.47;;;19.18;100.00
14818;BME280;7500;57.698;11.986;2022-09-13T00:56:17;100504.69;;;19.05;100.00
14818;BME280;7500;57.698;11.986;2022-09-13T00:58:49;100650.50;;;20.27;100.00
14818;BME280;7500;57.698;11.986;2022-09-13T01:01:17;100663.34;;;20.14;100.00
14818;BME280;7500;57.698;11.986;2022-09-13T01:03:46;100647.78;;;19.89;100.00
14818;BME280;7500;57.698;11.986;2022-09-13T01:06:17;100613.69;;;20.01;100.00
14818;BME280;7500;57.698;11.986;2022-09-13T01:08:49;100577.25;;;19.70;100.00
14818;BME280;7500;57.698;11.986;2022-09-13T01:11:19;100643.69;;;19.76;100.00
14818;BME280;7500;57.698;11.986;2022-09-13T01:13:50;100562.31;;;22.88;100.00
14818;BME280;7500;57.698;11.986;2022-09-13T01:16:17;100546.44;;;22.09;100.00
14818;BME280;7500;57.698;11.986;2022-09-13T01:18:44;100527.31;;;21.43;100.00
14818;BME280;7500;57.698;11.986;2022-09-13T01:24:35;100525.72;;;20.78;100.00
14818;BME280;7500;57.698;11.986;2022-09-13T01:27:32;100557.53;;;20.64;100.00
14818;BME280;7500;57.698;11.986;2022-09-13T01:30:19;100347.91;;;20.32;100.00
14818;BME280;7500;57.698;11.986;2022-09-13T01:32:59;100446.47;;;20.11;100.00
14818;BME280;7500;57.698;11.986;2022-09-13T01:35:40;100410.19;;;20.26;100.00
14818;BME280;7500;57.698;11.986;2022-09-13T01:38:29;100338.34;;;19.93;100.00
14818;BME280;7500;57.698;11.986;2022-09-13T01:41:11;100393.91;;;24.06;100.00
14818;BME280;7500;57.698;11.986;2022-09-13T01:43:52;100384.00;;;24.36;100.00
14818;BME280;7500;57.698;11.986;2022-09-13T01:46:27;100394.94;;;23.81;100.00
14818;BME280;7500;57.698;11.986;2022-09-13T01:49:01;118370.53;;;43.79;31.07
14818;BME280;7500;57.698;11.986;2022-09-13T01:51:32;101596.19;;;28.59;100.00
14818;BME280;7500;57.698;11.986;2022-09-13T01:54:14;101229.78;;;25.38;100.00
14818;BME280;7500;57.698;11.986;2022-09-13T01:56:52;101334.28;;;24.08;100.00
14818;BME280;7500;57.698;11.986;2022-09-13T01:59:23;101334.28;;;24.08;100.00
14818;BME280;7500;57.698;11.986;2022-09-13T02:01:59;100884.88;;;22.85;100.00
14818;BME280;7500;57.698;11.986;2022-09-13T02:04:29;100807.47;;;22.52;100.00
14818;BME280;7500;57.698;11.986;2022-09-13T02:07:02;100611.22;;;22.76;100.00
14818;BME280;7500;57.698;11.986;2022-09-13T02:09:34;100520.09;;;22.64;100.00
14818;BME280;7500;57.698;11.986;2022-09-13T02:12:06;100327.50;;;22.61;100.00
14818;BME280;7500;57.698;11.986;2022-09-13T02:14:36;100134.06;;;22.66;100.00
14818;BME280;7500;57.698;11.986;2022-09-13T02:17:07;100106.31;;;22.74;100.00
14818;BME280;7500;57.698;11.986;2022-09-13T02:19:37;100119.78;;;22.26;100.00
14818;BME280;7500;57.698;11.986;2022-09-13T02:22:07;100134.69;;;22.20;100.00
14818;BME280;7500;57.698;11.986;2022-09-13T02:24:39;100116.91;;;22.43;100.00
14818;BME280;7500;57.698;11.986;2022-09-13T02:27:10;100135.75;;;22.67;100.00
14818;BME280;7500;57.698;11.986;2022-09-13T02:29:41;100106.16;;;22.67;100.00
14818;BME280;7500;57.698;11.986;2022-09-13T02:32:13;100069.16;;;22.53;100.00
14818;BME280;7500;57.698;11.986;2022-09-13T02:34:45;100126.19;;;22.57;100.00
14818;BME280;7500;57.698;11.986;2022-09-13T02:37:13;100156.28;;;22.76;100.00
14818;BME280;7500;57.698;11.986;2022-09-13T02:39:44;100147.53;;;22.66;100.00
14818;BME280;7500;57.698;11.986;2022-09-13T02:42:17;100161.47;;;22.62;100.00
14818;BME280;7500;57.698;11.986;2022-09-13T02:44:48;100140.44;;;22.81;100.00
14818;BME280;7500;57.698;11.986;2022-09-13T02:47:41;100119.56;;;22.91;100.00
14818;BME280;7500;57.698;11.986;2022-09-13T02:50:22;100118.53;;;22.92;100.00
14818;BME280;7500;57.698;11.986;2022-09-13T02:53:00;100116.88;;;22.91;100.00
14818;BME280;7500;57.698;11.986;2022-09-13T02:55:31;100103.94;;;22.87;100.00
14818;BME280;7500;57.698;11.986;2022-09-13T02:58:09;100103.75;;;22.88;100.00
14818;BME280;7500;57.698;11.986;2022-09-13T03:00:38;100109.84;;;22.50;100.00
14818;BME280;7500;57.698;11.986;2022-09-13T03:03:09;100109.69;;;22.44;100.00
14818;BME280;7500;57.698;11.986;2022-09-13T03:05:36;100099.28;;;22.49;100.00
14818;BME280;7500;57.698;11.986;2022-09-13T03:08:04;100102.94;;;22.32;100.00
14818;BME280;7500;57.698;11.986;2022-09-13T03:10:47;100116.59;;;22.38;100.00
14818;BME280;7500;57.698;11.986;2022-09-13T03:13:31;100107.50;;;22.47;100.00
14818;BME280;7500;57.698;11.986;2022-09-13T03:16:06;100100.09;;;22.49;100.00
14818;BME280;7500;57.698;11.986;2022-09-13T03:18:50;100067.47;;;22.28;100.00
14818;BME280;7500;57.698;11.986;2022-09-13T03:21:41;100110.38;;;22.46;100.00
14818;BME280;7500;57.698;11.986;2022-09-13T03:24:18;100110.19;;;22.47;100.00
14818;BME280;7500;57.698;11.986;2022-09-13T03:26:56;100104.94;;;22.30;100.00
14818;BME280;7500;57.698;11.986;2022-09-13T03:29:33;100098.75;;;22.29;100.00
14818;BME280;7500;57.698;11.986;2022-09-13T03:32:16;100105.63;;;22.32;100.00
14818;BME280;7500;57.698;11.986;2022-09-13T03:34:51;100111.69;;;22.26;100.00
14818;BME280;7500;57.698;11.986;2022-09-13T03:37:24;100106.97;;;22.12;100.00
14818;BME280;7500;57.698;11.986;2022-09-13T03:39:56;100114.88;;;22.05;100.00
14818;BME280;7500;57.698;11.986;2022-09-13T03:42:31;100107.44;;;21.91;100.00
14818;BME280;7500;57.698;11.986;2022-09-13T03:45:14;100106.25;;;21.78;100.00
14818;BME280;7500;57.698;11.986;2022-09-13T03:47:44;100102.28;;;21.57;100.00
14818;BME280;7500;57.698;11.986;2022-09-13T03:50:18;100108.13;;;21.44;100.00
14818;BME280;7500;57.698;11.986;2022-09-13T03:52:49;100101.59;;;21.47;100.00
14818;BME280;7500;57.698;11.986;2022-09-13T03:55:18;100095.06;;;21.49;100.00
14818;BME280;7500;57.698;11.986;2022-09-13T03:57:45;100097.78;;;21.57;100.00
14818;BME280;7500;57.698;11.986;2022-09-13T04:00:13;100108.59;;;21.32;100.00
14818;BME280;7500;57.698;11.986;2022-09-13T04:02:42;100100.78;;;21.13;100.00
14818;BME280;7500;57.698;11.986;2022-09-13T04:05:09;100112.19;;;21.07;100.00
14818;BME280;7500;57.698;11.986;2022-09-13T04:07:38;100108.81;;;21.13;100.00
14818;BME280;7500;57.698;11.986;2022-09-13T04:10:05;100113.09;;;21.31;100.00
14818;BME280;7500;57.698;11.986;2022-09-13T04:12:32;100101.22;;;21.34;100.00
14818;BME280;7500;57.698;11.986;2022-09-13T04:14:59;100100.41;;;21.41;100.00
14818;BME280;7500;57.698;11.986;2022-09-13T04:17:26;100095.09;;;21.57;100.00
14818;BME280;7500;57.698;11.986;2022-09-13T04:19:54;100095.25;;;21.56;100.00
14818;BME280;7500;57.698;11.986;2022-09-13T04:22:21;100084.47;;;21.48;100.00
14818;BME280;7500;57.698;11.986;2022-09-13T04:24:49;100084.25;;;21.74;100.00
14818;BME280;7500;57.698;11.986;2022-09-13T04:27:17;100084.59;;;21.72;100.00
14818;BME280;7500;57.698;11.986;2022-09-13T04:29:44;100092.41;;;21.57;100.00
14818;BME280;7500;57.698;11.986;2022-09-13T04:32:11;100089.19;;;21.54;100.00
14818;BME280;7500;57.698;11.986;2022-09-13T04:34:37;100093.22;;;21.58;100.00
14818;BME280;7500;57.698;11.986;2022-09-13T04:37:04;100091.19;;;21.52;100.00
14818;BME280;7500;57.698;11.986;2022-09-13T04:39:31;100089.69;;;21.49;100.00
14818;BME280;7500;57.698;11.986;2022-09-13T04:41:59;100093.34;;;21.40;100.00
14818;BME280;7500;57.698;11.986;2022-09-13T04:44:26;100090.47;;;21.34;100.00
14818;BME280;7500;57.698;11.986;2022-09-13T04:46:54;100094.84;;;21.35;100.00
14818;BME280;7500;57.698;11.986;2022-09-13T04:49:21;100087.75;;;21.26;100.00
14818;BME280;7500;57.698;11.986;2022-09-13T04:51:48;100079.63;;;21.10;100.00
14818;BME280;7500;57.698;11.986;2022-09-13T04:54:15;100081.47;;;21.09;100.00
14818;BME280;7500;57.698;11.986;2022-09-13T04:56:42;100066.94;;;21.28;100.00
14818;BME280;7500;57.698;11.986;2022-09-13T04:59:13;100071.31;;;21.29;100.00
14818;BME280;7500;57.698;11.986;2022-09-13T05:01:40;100068.31;;;20.98;100.00
14818;BME280;7500;57.698;11.986;2022-09-13T05:04:08;100067.13;;;20.93;100.00
14818;BME280;7500;57.698;11.986;2022-09-13T05:06:35;100066.50;;;20.99;100.00
14818;BME280;7500;57.698;11.986;2022-09-13T05:09:02;100068.50;;;20.97;100.00
14818;BME280;7500;57.698;11.986;2022-09-13T05:11:30;100077.69;;;21.28;100.00
14818;BME280;7500;57.698;11.986;2022-09-13T05:13:58;100089.47;;;21.01;100.00
14818;BME280;7500;57.698;11.986;2022-09-13T05:16:28;100105.66;;;20.84;100.00
14818;BME280;7500;57.698;11.986;2022-09-13T05:18:55;100094.50;;;20.79;100.00
14818;BME280;7500;57.698;11.986;2022-09-13T05:21:22;100093.16;;;20.75;100.00
14818;BME280;7500;57.698;11.986;2022-09-13T05:23:50;100085.38;;;20.64;100.00
14818;BME280;7500;57.698;11.986;2022-09-13T05:26:20;100089.50;;;20.58;100.00
14818;BME280;7500;57.698;11.986;2022-09-13T05:28:47;100077.03;;;20.67;100.00
14818;BME280;7500;57.698;11.986;2022-09-13T05:31:16;100089.16;;;20.79;100.00
14818;BME280;7500;57.698;11.986;2022-09-13T05:33:46;100087.25;;;20.71;100.00
14818;BME280;7500;57.698;11.986;2022-09-13T05:36:14;100080.22;;;20.96;100.00
14818;BME280;7500;57.698;11.986;2022-09-13T05:38:40;100087.75;;;20.92;100.00
14818;BME280;7500;57.698;11.986;2022-09-13T05:41:07;100078.91;;;21.00;100.00
14818;BME280;7500;57.698;11.986;2022-09-13T05:43:35;100080.63;;;21.09;100.00
14818;BME280;7500;57.698;11.986;2022-09-13T05:46:03;100080.50;;;21.18;100.00
14818;BME280;7500;57.698;11.986;2022-09-13T05:48:32;100084.66;;;21.13;100.00
14818;BME280;7500;57.698;11.986;2022-09-13T05:51:08;100086.59;;;20.95;100.00
14818;BME280;7500;57.698;11.986;2022-09-13T05:53:36;100085.97;;;21.01;100.00
14818;BME280;7500;57.698;11.986;2022-09-13T05:56:04;100076.22;;;21.00;100.00
14818;BME280;7500;57.698;11.986;2022-09-13T05:58:31;100087.91;;;20.91;100.00
14818;BME280;7500;57.698;11.986;2022-09-13T06:00:59;100087.72;;;20.84;100.00
14818;BME280;7500;57.698;11.986;2022-09-13T06:03:26;100089.56;;;20.84;100.00
14818;BME280;7500;57.698;11.986;2022-09-13T06:05:56;100075.72;;;20.71;100.00
14818;BME280;7500;57.698;11.986;2022-09-13T06:08:25;100087.47;;;20.78;100.00
14818;BME280;7500;57.698;11.986;2022-09-13T06:10:54;100084.50;;;20.81;100.00
14818;BME280;7500;57.698;11.986;2022-09-13T06:13:22;100083.50;;;20.82;100.00
14818;BME280;7500;57.698;11.986;2022-09-13T06:15:49;100076.44;;;20.81;100.00
14818;BME280;7500;57.698;11.986;2022-09-13T06:18:16;100080.50;;;20.85;100.00
14818;BME280;7500;57.698;11.986;2022-09-13T06:20:43;100062.75;;;20.66;100.00
14818;BME280;7500;57.698;11.986;2022-09-13T06:23:10;100087.88;;;20.83;100.00
14818;BME280;7500;57.698;11.986;2022-09-13T06:25:41;100092.34;;;21.00;100.00
14818;BME280;7500;57.698;11.986;2022-09-13T06:28:08;100077.91;;;21.01;100.00
14818;BME280;7500;57.698;11.986;2022-09-13T06:30:35;100080.03;;;20.64;100.00
14818;BME280;7500;57.698;11.986;2022-09-13T06:33:02;100084.75;;;20.70;100.00
14818;BME280;7500;57.698;11.986;2022-09-13T06:35:29;100075.97;;;20.60;100.00
14818;BME280;7500;57.698;11.986;2022-09-13T06:37:56;100082.84;;;20.62;100.00
14818;BME280;7500;57.698;11.986;2022-09-13T06:40:23;100075.34;;;20.66;100.00
14818;BME280;7500;57.698;11.986;2022-09-13T06:42:51;100071.03;;;20.73;100.00
14818;BME280;7500;57.698;11.986;2022-09-13T06:45:18;100078.72;;;20.76;100.00
14818;BME280;7500;57.698;11.986;2022-09-13T06:47:46;100067.94;;;20.85;100.00
14818;BME280;7500;57.698;11.986;2022-09-13T06:50:12;100066.25;;;20.84;100.00
14818;BME280;7500;57.698;11.986;2022-09-13T06:52:39;100064.13;;;20.70;100.00
14818;BME280;7500;57.698;11.986;2022-09-13T06:55:07;100068.84;;;20.76;100.00
14818;BME280;7500;57.698;11.986;2022-09-13T06:57:34;100072.84;;;20.72;100.00
14818;BME280;7500;57.698;11.986;2022-09-13T07:00:03;100053.81;;;20.58;100.00
14818;BME280;7500;57.698;11.986;2022-09-13T07:02:30;100067.97;;;20.68;100.00
14818;BME280;7500;57.698;11.986;2022-09-13T07:04:57;100068.34;;;20.73;100.00
14818;BME280;7500;57.698;11.986;2022-09-13T07:07:24;100054.25;;;20.71;100.00
14818;BME280;7500;57.698;11.986;2022-09-13T07:09:52;100049.56;;;20.73;100.00
14818;BME280;7500;57.698;11.986;2022-09-13T07:12:19;100050.06;;;20.76;100.00
14818;BME280;7500;57.698;11.986;2022-09-13T07:14:46;100059.63;;;20.71;100.00
14818;BME280;7500;57.698;11.986;2022-09-13T07:17:14;100068.41;;;20.81;100.00
14818;BME280;7500;57.698;11.986;2022-09-13T07:19:41;100063.09;;;20.89;100.00
14818;BME280;7500;57.698;11.986;2022-09-13T07:22:08;100061.09;;;20.91;100.00
14818;BME280;7500;57.698;11.986;2022-09-13T07:24:35;100074.13;;;20.86;100.00
14818;BME280;7500;57.698;11.986;2022-09-13T07:27:02;100083.72;;;20.88;100.00
14818;BME280;7500;57.698;11.986;2022-09-13T07:29:29;100068.63;;;20.95;100.00
14818;BME280;7500;57.698;11.986;2022-09-13T07:31:56;100072.50;;;20.93;100.00
14818;BME280;7500;57.698;11.986;2022-09-13T07:34:25;100062.63;;;21.01;100.00
14818;BME280;7500;57.698;11.986;2022-09-13T07:36:52;100063.19;;;21.05;100.00
14818;BME280;7500;57.698;11.986;2022-09-13T07:39:20;100046.53;;;21.01;100.00
14818;BME280;7500;57.698;11.986;2022-09-13T07:41:47;100061.50;;;21.04;100.00
14818;BME280;7500;57.698;11.986;2022-09-13T07:44:14;100049.13;;;21.19;100.00
14818;BME280;7500;57.698;11.986;2022-09-13T07:46:41;100076.66;;;21.21;100.00
14818;BME280;7500;57.698;11.986;2022-09-13T07:49:09;100060.53;;;21.21;100.00
14818;BME280;7500;57.698;11.986;2022-09-13T07:51:40;100069.47;;;21.21;100.00
14818;BME280;7500;57.698;11.986;2022-09-13T07:54:09;100063.56;;;21.18;100.00
14818;BME280;7500;57.698;11.986;2022-09-13T07:56:38;100057.03;;;21.20;100.00
14818;BME280;7500;57.698;11.986;2022-09-13T07:59:09;100059.53;;;21.22;100.00
14818;BME280;7500;57.698;11.986;2022-09-13T08:01:37;100068.09;;;21.17;100.00
14818;BME280;7500;57.698;11.986;2022-09-13T08:04:06;100057.13;;;21.11;100.00
14818;BME280;7500;57.698;11.986;2022-09-13T08:06:35;100056.81;;;21.06;100.00
14818;BME280;7500;57.698;11.986;2022-09-13T08:09:05;100064.50;;;21.01;100.00
14818;BME280;7500;57.698;11.986;2022-09-13T08:11:33;99996.94;;;20.80;100.00
14818;BME280;7500;57.698;11.986;2022-09-13T08:14:01;100054.31;;;21.12;100.00
14818;BME280;7500;57.698;11.986;2022-09-13T08:16:29;100047.41;;;21.10;100.00
14818;BME280;7500;57.698;11.986;2022-09-13T08:18:57;100057.28;;;21.01;100.00
14818;BME280;7500;57.698;11.986;2022-09-13T08:21:25;100046.72;;;21.00;100.00
14818;BME280;7500;57.698;11.986;2022-09-13T08:23:55;100048.53;;;20.99;100.00
14818;BME280;7500;57.698;11.986;2022-09-13T08:26:26;100035.97;;;21.08;100.00
14818;BME280;7500;57.698;11.986;2022-09-13T08:28:55;100037.84;;;21.07;100.00
14818;BME280;7500;57.698;11.986;2022-09-13T08:31:23;100046.56;;;21.09;100.00
14818;BME280;7500;57.698;11.986;2022-09-13T08:33:50;100036.66;;;21.10;100.00
14818;BME280;7500;57.698;11.986;2022-09-13T08:36:17;100034.88;;;21.18;100.00
14818;BME280;7500;57.698;11.986;2022-09-13T08:38:47;100034.00;;;21.18;100.00
14818;BME280;7500;57.698;11.986;2022-09-13T08:41:36;100038.69;;;21.16;100.00
14818;BME280;7500;57.698;11.986;2022-09-13T08:44:17;100033.53;;;21.30;100.00
14818;BME280;7500;57.698;11.986;2022-09-13T08:46:51;100026.16;;;21.32;100.00
14818;BME280;7500;57.698;11.986;2022-09-13T08:49:25;100025.00;;;21.43;100.00
14818;BME280;7500;57.698;11.986;2022-09-13T08:51:55;100015.63;;;21.47;100.00
14818;BME280;7500;57.698;11.986;2022-09-13T08:54:24;100029.09;;;21.55;100.00
14818;BME280;7500;57.698;11.986;2022-09-13T08:56:58;100030.06;;;21.38;100.00
14818;BME280;7500;57.698;11.986;2022-09-13T08:59:42;100031.75;;;21.39;100.00
14818;BME280;7500;57.698;11.986;2022-09-13T09:02:24;100043.16;;;21.41;100.00
14818;BME280;7500;57.698;11.986;2022-09-13T09:05:00;100036.78;;;21.50;100.00
14818;BME280;7500;57.698;11.986;2022-09-13T09:07:32;100027.81;;;21.67;100.00
14818;BME280;7500;57.698;11.986;2022-09-13T09:10:05;100010.00;;;21.66;100.00
14818;BME280;7500;57.698;11.986;2022-09-13T09:12:37;100029.47;;;21.75;100.00
14818;BME280;7500;57.698;11.986;2022-09-13T09:15:14;100031.66;;;21.72;100.00
14818;BME280;7500;57.698;11.986;2022-09-13T09:17:49;100031.84;;;21.71;100.00
14818;BME280;7500;57.698;11.986;2022-09-13T09:20:29;100030.47;;;21.59;100.00
14818;BME280;7500;57.698;11.986;2022-09-13T09:23:01;100014.84;;;21.62;100.00
14818;BME280;7500;57.698;11.986;2022-09-13T09:25:30;100017.50;;;21.54;100.00
14818;BME280;7500;57.698;11.986;2022-09-13T09:27:59;100011.59;;;21.35;100.00
14818;BME280;7500;57.698;11.986;2022-09-13T09:30:35;100002.72;;;21.42;100.00
14818;BME280;7500;57.698;11.986;2022-09-13T09:33:12;100002.34;;;21.37;100.00
14818;BME280;7500;57.698;11.986;2022-09-13T09:35:50;100018.66;;;21.52;100.00
14818;BME280;7500;57.698;11.986;2022-09-13T09:38:38;100014.41;;;21.17;100.00
14818;BME280;7500;57.698;11.986;2022-09-13T09:41:25;99998.34;;;20.92;100.00
14818;BME280;7500;57.698;11.986;2022-09-13T09:44:00;100007.16;;;20.76;100.00
14818;BME280;7500;57.698;11.986;2022-09-13T09:46:33;100032.38;;;20.58;100.00
14818;BME280;7500;57.698;11.986;2022-09-13T09:49:08;100019.09;;;20.06;100.00
14818;BME280;7500;57.698;11.986;2022-09-13T09:52:00;99990.81;;;19.51;100.00
14818;BME280;7500;57.698;11.986;2022-09-13T09:54:32;100067.63;;;19.24;100.00
14818;BME280;7500;57.698;11.986;2022-09-13T09:57:00;99999.34;;;19.20;100.00
14818;BME280;7500;57.698;11.986;2022-09-13T09:59:30;99985.56;;;19.32;100.00
14818;BME280;7500;57.698;11.986;2022-09-13T10:01:58;100004.00;;;19.35;100.00
14818;BME280;7500;57.698;11.986;2022-09-13T10:04:27;99992.41;;;19.44;100.00
14818;BME280;7500;57.698;11.986;2022-09-13T10:07:10;99984.44;;;19.17;100.00
14818;BME280;7500;57.698;11.986;2022-09-13T10:09:58;99985.75;;;19.31;100.00
14818;BME280;7500;57.698;11.986;2022-09-13T10:12:26;99981.00;;;19.42;100.00
14818;BME280;7500;57.698;11.986;2022-09-13T10:15:10;99964.63;;;19.28;100.00
14818;BME280;7500;57.698;11.986;2022-09-13T10:17:40;99962.56;;;19.39;100.00
14818;BME280;7500;57.698;11.986;2022-09-13T10:20:19;99960.56;;;19.24;100.00
14818;BME280;7500;57.698;11.986;2022-09-13T10:23:09;99947.28;;;19.14;100.00
14818;BME280;7500;57.698;11.986;2022-09-13T10:25:38;99952.03;;;19.11;100.00
14818;BME280;7500;57.698;11.986;2022-09-13T10:28:10;99933.34;;;19.28;100.00
14818;BME280;7500;57.698;11.986;2022-09-13T10:30:41;99954.22;;;19.59;100.00
14818;BME280;7500;57.698;11.986;2022-09-13T10:33:22;99944.81;;;19.55;100.00
14818;BME280;7500;57.698;11.986;2022-09-13T10:35:52;99934.88;;;19.65;100.00
14818;BME280;7500;57.698;11.986;2022-09-13T10:38:24;99944.59;;;19.66;100.00
14818;BME280;7500;57.698;11.986;2022-09-13T10:40:52;99935.72;;;19.91;100.00
14818;BME280;7500;57.698;11.986;2022-09-13T10:43:20;99927.97;;;20.06;100.00
14818;BME280;7500;57.698;11.986;2022-09-13T10:45:50;99940.53;;;20.05;100.00
14818;BME280;7500;57.698;11.986;2022-09-13T10:48:18;99935.09;;;20.15;100.00
14818;BME280;7500;57.698;11.986;2022-09-13T10:51:03;99930.75;;;19.96;100.00
14818;BME280;7500;57.698;11.986;2022-09-13T10:53:37;99926.13;;;20.06;100.00
14818;BME280;7500;57.698;11.986;2022-09-13T10:56:05;99919.94;;;20.06;100.00
14818;BME280;7500;57.698;11.986;2022-09-13T10:58:33;99925.13;;;20.07;100.00
14818;BME280;7500;57.698;11.986;2022-09-13T11:01:22;99920.03;;;19.96;100.00
14818;BME280;7500;57.698;11.986;2022-09-13T11:06:51;99925.53;;;19.95;100.00
14818;BME280;7500;57.698;11.986;2022-09-13T11:09:25;99917.75;;;20.01;100.00
14818;BME280;7500;57.698;11.986;2022-09-13T11:11:57;99902.09;;;19.97;100.00
14818;BME280;7500;57.698;11.986;2022-09-13T11:14:44;99891.38;;;20.22;100.00
14818;BME280;7500;57.698;11.986;2022-09-13T11:17:24;99893.47;;;20.36;100.00
14818;BME280;7500;57.698;11.986;2022-09-13T11:20:13;99896.50;;;20.41;100.00
14818;BME280;7500;57.698;11.986;2022-09-13T11:25:55;99905.63;;;20.23;100.00
14818;BME280;7500;57.698;11.986;2022-09-13T11:28:36;99894.69;;;19.91;100.00
14818;BME280;7500;57.698;11.986;2022-09-13T11:31:20;99895.34;;;19.93;100.00
14818;BME280;7500;57.698;11.986;2022-09-13T11:34:01;99886.72;;;20.24;100.00
14818;BME280;7500;57.698;11.986;2022-09-13T11:36:45;99885.91;;;19.98;100.00
14818;BME280;7500;57.698;11.986;2022-09-13T11:39:21;100043.38;;;19.87;100.00
14818;BME280;7500;57.698;11.986;2022-09-13T11:42:00;99953.00;;;19.97;100.00
14818;BME280;7500;57.698;11.986;2022-09-13T11:44:55;99879.81;;;19.71;100.00
14818;BME280;7500;57.698;11.986;2022-09-13T11:47:35;99901.75;;;19.49;100.00
14818;BME280;7500;57.698;11.986;2022-09-13T11:50:22;99881.78;;;19.43;100.00
14818;BME280;7500;57.698;11.986;2022-09-13T11:53:00;99874.63;;;19.27;100.00
14818;BME280;7500;57.698;11.986;2022-09-13T11:55:33;99982.31;;;18.57;100.00
14818;BME280;7500;57.698;11.986;2022-09-13T11:58:07;100023.03;;;18.51;100.00
14818;BME280;7500;57.698;11.986;2022-09-13T12:00:41;99997.75;;;18.36;100.00
14818;BME280;7500;57.698;11.986;2022-09-13T12:03:16;99895.78;;;18.22;100.00
14818;BME280;7500;57.698;11.986;2022-09-13T12:05:50;99899.59;;;18.29;100.00
14818;BME280;7500;57.698;11.986;2022-09-13T12:08:21;99897.34;;;18.15;100.00
14818;BME280;7500;57.698;11.986;2022-09-13T12:10:53;99900.59;;;18.09;100.00
14818;BME280;7500;57.698;11.986;2022-09-13T12:13:21;99900.78;;;18.44;100.00
14818;BME280;7500;57.698;11.986;2022-09-13T12:15:51;99905.63;;;18.58;100.00
14818;BME280;7500;57.698;11.986;2022-09-13T12:18:22;99908.25;;;18.40;100.00
14818;BME280;7500;57.698;11.986;2022-09-13T12:20:53;99905.22;;;18.26;100.00
14818;BME280;7500;57.698;11.986;2022-09-13T12:23:25;99899.69;;;18.37;100.00
14818;BME280;7500;57.698;11.986;2022-09-13T12:25:57;99912.56;;;18.51;100.00
14818;BME280;7500;57.698;11.986;2022-09-13T12:28:28;99908.47;;;18.74;100.00
14818;BME280;7500;57.698;11.986;2022-09-13T12:31:00;99906.69;;;18.92;100.00
14818;BME280;7500;57.698;11.986;2022-09-13T12:33:28;99924.25;;;18.94;100.00
14818;BME280;7500;57.698;11.986;2022-09-13T12:36:15;99916.63;;;18.99;100.00
14818;BME280;7500;57.698;11.986;2022-09-13T12:39:08;99917.97;;;19.30;100.00
14818;BME280;7500;57.698;11.986;2022-09-13T12:41:47;99913.38;;;19.23;100.00
14818;BME280;7500;57.698;11.986;2022-09-13T12:44:35;99908.69;;;19.07;100.00
14818;BME280;7500;57.698;11.986;2022-09-13T12:47:19;99916.50;;;19.01;100.00
14818;BME280;7500;57.698;11.986;2022-09-13T12:50:15;99917.41;;;18.92;100.00
14818;BME280;7500;57.698;11.986;2022-09-13T12:52:51;99910.97;;;18.85;100.00
14818;BME280;7500;57.698;11.986;2022-09-13T12:58:58;99905.44;;;19.31;100.00
14818;BME280;7500;57.698;11.986;2022-09-13T13:01:31;99898.84;;;19.25;100.00
14818;BME280;7500;57.698;11.986;2022-09-13T13:04:02;99899.78;;;19.16;100.00
14818;BME280;7500;57.698;11.986;2022-09-13T13:06:32;99898.47;;;19.03;100.00
14818;BME280;7500;57.698;11.986;2022-09-13T13:09:16;99907.41;;;19.11;100.00
14818;BME280;7500;57.698;11.986;2022-09-13T13:11:47;99889.44;;;19.21;100.00
14818;BME280;7500;57.698;11.986;2022-09-13T13:14:45;99897.72;;;19.28;100.00
14818;BME280;7500;57.698;11.986;2022-09-13T13:17:41;99889.22;;;19.32;100.00
14818;BME280;7500;57.698;11.986;2022-09-13T13:20:40;99886.47;;;19.24;100.00
14818;BME280;7500;57.698;11.986;2022-09-13T13:23:19;99871.31;;;18.98;100.00